createdAt,value
2022-12-15T00:00:04.464Z,27.10
2022-12-15T00:03:13.337Z,28.98
2022-12-15T00:06:19.723Z,25.50
2022-12-15T00:09:30.661Z,28.42
2022-12-15T00:12:39.041Z,26.33
2022-12-15T00:15:44.644Z,27.17
2022-12-15T00:18:49.928Z,29.65
2022-12-15T00:21:55.781Z,30.27
2022-12-15T00:25:01.194Z,29.90
2022-12-15T00:28:06.533Z,28.25
2022-12-15T00:31:12.275Z,27.23
2022-12-15T00:34:17.879Z,29.25
2022-12-15T00:37:25.835Z,28.85
2022-12-15T00:40:16.050Z,26.23
2022-12-15T00:43:03.324Z,27.83
2022-12-15T00:46:08.925Z,28.23
2022-12-15T00:48:56.385Z,27.73
2022-12-15T00:52:06.533Z,30.92
2022-12-15T00:55:12.130Z,29.40
2022-12-15T00:58:17.956Z,28.55
2022-12-15T01:01:29.580Z,27.75
2022-12-15T01:04:37.457Z,26.63
2022-12-15T01:07:43.088Z,28.80
2022-12-15T01:10:48.644Z,25.00
2022-12-15T01:13:54.091Z,28.35
2022-12-15T01:16:59.316Z,28.48
2022-12-15T01:20:04.730Z,24.98
2022-12-15T01:22:54.395Z,27.50
2022-12-15T01:25:41.194Z,29.02
2022-12-15T01:28:28.748Z,26.70
2022-12-15T01:31:15.939Z,25.90
2022-12-15T01:34:02.851Z,27.88
2022-12-15T01:36:49.741Z,26.05
2022-12-15T01:39:55.288Z,26.73
2022-12-15T01:42:42.293Z,24.17
2022-12-15T01:45:29.042Z,25.88
2022-12-15T01:48:27.543Z,27.48
2022-12-15T01:51:19.951Z,29.35
2022-12-15T01:54:10.429Z,23.05
2022-12-15T01:57:05.264Z,27.20
2022-12-15T01:59:56.717Z,27.42
2022-12-15T02:02:43.690Z,24.75
2022-12-15T02:05:33.949Z,25.20
2022-12-15T02:08:20.973Z,26.27
2022-12-15T02:11:45.638Z,25.92
2022-12-15T02:14:53.439Z,23.67
2022-12-15T02:17:58.751Z,25.30
2022-12-15T02:21:20.847Z,27.20
2022-12-15T02:24:38.101Z,25.45
2022-12-15T02:27:47.783Z,25.15
2022-12-15T02:31:08.862Z,27.40
2022-12-15T02:34:06.327Z,25.48
2022-12-15T02:37:00.851Z,25.27
2022-12-15T02:39:47.732Z,26.58
2022-12-15T02:42:39.192Z,24.25
2022-12-15T02:45:37.654Z,28.42
2022-12-15T02:48:38.137Z,26.55
2022-12-15T02:52:15.638Z,23.63
2022-12-15T02:55:23.005Z,25.83
2022-12-15T02:58:27.636Z,24.58
2022-12-15T03:01:34.564Z,24.33
2022-12-15T03:04:22.040Z,22.90
2022-12-15T03:07:10.109Z,27.42
2022-12-15T03:10:00.573Z,23.40
2022-12-15T03:12:47.729Z,25.27
2022-12-15T03:15:35.705Z,24.42
2022-12-15T03:18:23.012Z,22.48
2022-12-15T03:21:09.898Z,23.80
2022-12-15T03:23:56.834Z,24.55
2022-12-15T03:26:43.842Z,23.73
2022-12-15T03:29:30.995Z,27.70
2022-12-15T03:32:17.967Z,25.95
2022-12-15T03:35:05.638Z,23.80
2022-12-15T03:37:55.665Z,24.10
2022-12-15T03:40:42.876Z,24.67
2022-12-15T03:43:30.251Z,28.00
2022-12-15T03:46:17.613Z,24.83
2022-12-15T03:49:04.668Z,23.17
2022-12-15T03:51:54.302Z,23.77
2022-12-15T03:54:43.246Z,24.58
2022-12-15T03:57:30.527Z,23.98
2022-12-15T04:00:18.711Z,23.05
2022-12-15T04:03:05.685Z,24.02
2022-12-15T04:05:52.613Z,22.48
2022-12-15T04:08:39.660Z,25.13
2022-12-15T04:11:26.616Z,23.00
2022-12-15T04:14:15.872Z,25.48
2022-12-15T04:17:02.772Z,26.15
2022-12-15T04:20:08.219Z,28.13
2022-12-15T04:22:56.521Z,22.20
2022-12-15T04:26:01.890Z,22.38
2022-12-15T04:29:07.042Z,22.55
2022-12-15T04:32:12.495Z,23.38
2022-12-15T04:35:17.681Z,22.27
2022-12-15T04:38:23.282Z,23.50
2022-12-15T04:41:28.878Z,22.52
2022-12-15T04:44:34.767Z,23.70
2022-12-15T04:47:42.245Z,24.55
2022-12-15T04:50:47.753Z,23.63
2022-12-15T04:53:55.390Z,24.60
2022-12-15T04:57:00.845Z,25.13
2022-12-15T05:00:06.446Z,21.65
2022-12-15T05:03:17.977Z,22.88
2022-12-15T05:06:24.007Z,23.10
2022-12-15T05:09:29.619Z,21.88
2022-12-15T05:12:35.150Z,22.50
2022-12-15T05:15:40.558Z,22.05
2022-12-15T05:18:45.844Z,25.25
2022-12-15T05:21:51.443Z,23.02
2022-12-15T05:24:57.039Z,24.67
2022-12-15T05:28:02.712Z,23.55
2022-12-15T05:31:07.995Z,21.90
2022-12-15T05:34:08.293Z,24.30
2022-12-15T05:36:56.195Z,22.67
2022-12-15T05:39:42.959Z,22.80
2022-12-15T05:42:29.880Z,20.27
2022-12-15T05:45:16.853Z,23.20
2022-12-15T05:48:03.754Z,20.95
2022-12-15T05:50:50.607Z,21.88
2022-12-15T05:53:43.636Z,23.65
2022-12-15T05:56:30.559Z,21.80
2022-12-15T05:59:19.303Z,21.70
2022-12-15T06:02:06.267Z,22.27
2022-12-15T06:04:58.556Z,21.83
2022-12-15T06:07:47.974Z,24.83
2022-12-15T06:13:34.284Z,22.42
2022-12-15T06:16:27.654Z,23.45
2022-12-15T06:19:57.916Z,21.17
2022-12-15T06:22:49.752Z,28.65
2022-12-15T06:25:37.368Z,34.63
2022-12-15T06:28:25.024Z,51.67
2022-12-15T06:31:12.742Z,46.90
2022-12-15T06:34:02.310Z,42.53
2022-12-15T06:36:50.203Z,41.47
2022-12-15T06:39:36.980Z,37.75
2022-12-15T06:42:23.780Z,37.05
2022-12-15T06:45:10.825Z,36.38
2022-12-15T06:48:01.255Z,37.25
2022-12-15T06:50:50.231Z,33.53
2022-12-15T06:53:41.163Z,36.47
2022-12-15T06:56:33.968Z,36.55
2022-12-15T06:59:24.828Z,36.22
2022-12-15T07:02:21.110Z,39.83
2022-12-15T07:05:10.754Z,40.17
2022-12-15T07:08:02.367Z,38.17
2022-12-15T07:10:51.421Z,39.38
2022-12-15T07:13:41.131Z,36.70
2022-12-15T07:16:27.996Z,34.90
2022-12-15T07:19:15.281Z,34.83
2022-12-15T07:22:02.436Z,37.95
2022-12-15T07:24:49.311Z,33.60
2022-12-15T07:27:37.868Z,34.75
2022-12-15T07:30:24.633Z,34.15
2022-12-15T07:33:11.497Z,33.22
2022-12-15T07:35:58.275Z,33.45
2022-12-15T07:38:50.120Z,37.88
2022-12-15T07:41:38.683Z,32.58
2022-12-15T07:44:27.716Z,34.78
2022-12-15T07:47:14.602Z,34.08
2022-12-15T07:50:01.755Z,36.60
2022-12-15T07:52:50.955Z,30.33
2022-12-15T07:56:05.648Z,31.00
2022-12-15T07:58:48.176Z,29.83
2022-12-15T08:01:35.331Z,32.30
2022-12-15T08:04:22.657Z,31.73
2022-12-15T08:07:10.717Z,34.05
2022-12-15T08:09:57.775Z,36.72
2022-12-15T08:12:44.751Z,32.97
2022-12-15T08:15:31.599Z,34.65
2022-12-15T08:18:18.772Z,29.77
2022-12-15T08:21:17.118Z,35.83
2022-12-15T08:24:04.587Z,30.13
2022-12-15T08:27:15.891Z,34.75
2022-12-15T08:30:06.832Z,32.28
2022-12-15T08:33:11.934Z,30.27
2022-12-15T08:36:00.448Z,30.27
2022-12-15T08:38:47.690Z,30.45
2022-12-15T08:41:34.568Z,31.85
2022-12-15T08:44:31.779Z,30.45
2022-12-15T08:47:18.659Z,34.58
2022-12-15T08:50:09.039Z,34.60
2022-12-15T08:53:29.023Z,30.77
2022-12-15T08:56:05.746Z,31.80
2022-12-15T08:58:57.946Z,28.80
2022-12-15T09:01:45.206Z,29.65
2022-12-15T09:04:32.386Z,28.55
2022-12-15T09:07:23.673Z,34.00
2022-12-15T09:10:10.610Z,33.45
2022-12-15T09:12:57.670Z,30.45
2022-12-15T09:16:08.768Z,30.77
2022-12-15T09:18:54.797Z,28.50
2022-12-15T09:21:44.915Z,31.15
2022-12-15T09:24:35.704Z,33.67
2022-12-15T09:27:22.715Z,33.35
2022-12-15T09:30:09.956Z,29.85
2022-12-15T09:32:57.132Z,29.02
2022-12-15T09:35:51.352Z,27.70
2022-12-15T09:38:39.064Z,30.58
2022-12-15T09:41:36.153Z,30.52
2022-12-15T09:44:27.158Z,32.40
2022-12-15T09:47:42.198Z,31.00
2022-12-15T09:50:39.356Z,30.23
2022-12-15T09:53:53.721Z,30.50
2022-12-15T09:56:44.193Z,31.83
2022-12-15T10:00:07.923Z,29.80
2022-12-15T10:03:20.199Z,30.83
2022-12-15T10:09:30.514Z,28.65
2022-12-15T10:12:30.056Z,28.88
2022-12-15T10:15:18.949Z,29.52
2022-12-15T10:18:15.276Z,28.83
2022-12-15T10:21:03.296Z,31.15
2022-12-15T10:23:59.438Z,33.67
2022-12-15T10:27:08.490Z,29.42
2022-12-15T10:30:04.522Z,31.92
2022-12-15T10:33:22.323Z,30.13
2022-12-15T10:55:31.280Z,29.50
2022-12-15T11:03:17.502Z,28.73
2022-12-15T11:07:54.268Z,27.88
2022-12-15T11:18:28.567Z,30.70
2022-12-15T11:22:46.235Z,31.77
2022-12-15T11:25:48.354Z,30.70
2022-12-15T11:31:20.737Z,28.80
2022-12-15T11:33:29.833Z,29.98
2022-12-15T11:37:20.676Z,31.70
2022-12-15T11:44:46.915Z,34.70
2022-12-15T11:48:49.001Z,31.85
2022-12-15T11:56:37.658Z,30.50
2022-12-15T12:04:11.468Z,31.23
2022-12-15T12:11:15.908Z,30.52
2022-12-15T12:18:33.109Z,46.22
2022-12-15T12:21:24.822Z,48.70
2022-12-15T12:24:22.685Z,53.22
2022-12-15T12:27:20.087Z,42.30
2022-12-15T12:30:14.187Z,40.70
2022-12-15T12:33:29.437Z,47.55
2022-12-15T12:36:29.574Z,42.33
2022-12-15T12:39:21.555Z,44.47
2022-12-15T12:42:24.789Z,38.10
2022-12-15T12:45:12.822Z,42.83
2022-12-15T12:48:15.466Z,41.03
2022-12-15T12:51:24.552Z,44.22
2022-12-15T12:54:42.316Z,40.55
2022-12-15T12:57:40.568Z,37.92
2022-12-15T13:00:29.219Z,36.30
2022-12-15T13:03:19.770Z,35.58
2022-12-15T13:06:41.824Z,34.75
2022-12-15T13:09:47.783Z,35.55
2022-12-15T13:12:54.871Z,41.28
2022-12-15T13:15:51.873Z,36.90
2022-12-15T13:19:04.823Z,36.83
2022-12-15T13:22:01.854Z,36.28
2022-12-15T13:24:53.481Z,34.95
2022-12-15T13:27:41.861Z,36.33
2022-12-15T13:30:38.048Z,37.17
2022-12-15T13:33:27.521Z,35.92
2022-12-15T13:36:39.943Z,36.30
2022-12-15T13:39:36.051Z,35.15
2022-12-15T13:42:53.131Z,37.40
2022-12-15T13:45:51.203Z,35.00
2022-12-15T13:49:04.715Z,33.50
2022-12-15T13:51:59.202Z,37.67
2022-12-15T13:54:59.028Z,35.28
2022-12-15T13:57:59.460Z,33.35
2022-12-15T14:00:54.336Z,32.90
2022-12-15T14:04:06.159Z,33.60
2022-12-15T14:07:06.932Z,35.67
2022-12-15T14:09:54.057Z,31.35
2022-12-15T14:12:44.281Z,31.50
2022-12-15T14:15:32.682Z,32.78
2022-12-15T14:18:26.435Z,35.55
2022-12-15T14:21:21.937Z,32.85
2022-12-15T14:24:40.249Z,31.77
2022-12-15T14:27:30.931Z,31.20
2022-12-15T14:30:33.325Z,32.60
2022-12-15T14:33:22.100Z,34.60
2022-12-15T14:36:14.612Z,31.23
2022-12-15T14:39:06.792Z,32.80
2022-12-15T14:41:54.133Z,30.92
2022-12-15T14:44:49.712Z,34.13
2022-12-15T14:47:37.690Z,30.88
2022-12-15T14:50:25.430Z,32.67
2022-12-15T14:53:17.836Z,33.13
2022-12-15T14:56:20.386Z,31.33
2022-12-15T14:59:19.870Z,31.33
2022-12-15T15:02:22.811Z,30.48
2022-12-15T15:03:10.516Z,31.38
2022-12-15T15:05:26.181Z,30.50
2022-12-15T15:08:28.451Z,34.58
2022-12-15T15:11:37.013Z,32.95
2022-12-15T15:14:27.691Z,31.00
2022-12-15T15:17:17.128Z,31.25
2022-12-15T15:20:07.015Z,30.52
2022-12-15T15:23:12.044Z,33.75
2022-12-15T15:26:05.210Z,33.75
2022-12-15T15:28:52.204Z,33.55
2022-12-15T15:31:41.859Z,30.88
2022-12-15T15:34:29.044Z,32.80
2022-12-15T15:37:24.192Z,29.50
2022-12-15T15:40:14.465Z,27.15
2022-12-15T15:43:01.360Z,33.17
2022-12-15T15:45:49.388Z,30.00
2022-12-15T15:49:39.444Z,33.22
2022-12-15T15:56:19.932Z,95.38
2022-12-15T16:02:57.333Z,86.88
2022-12-15T16:06:20.826Z,88.20
2022-12-15T16:09:24.222Z,69.95
2022-12-15T16:12:46.149Z,77.60
2022-12-15T16:16:20.099Z,78.97
2022-12-15T16:19:13.310Z,66.47
2022-12-15T16:22:30.035Z,64.57
2022-12-15T16:25:50.321Z,63.40
2022-12-15T16:28:43.872Z,66.78
2022-12-15T16:32:05.425Z,65.40
2022-12-15T16:34:55.052Z,74.32
2022-12-15T16:37:46.572Z,71.57
2022-12-15T16:40:37.480Z,77.05
2022-12-15T16:43:32.890Z,73.28
2022-12-15T16:46:23.156Z,80.55
2022-12-15T16:49:11.229Z,69.18
2022-12-15T16:52:00.843Z,70.82
2022-12-15T16:54:49.081Z,64.22
2022-12-15T16:57:35.839Z,63.40
2022-12-15T17:00:26.061Z,66.95
2022-12-15T17:03:14.562Z,58.35
2022-12-15T17:06:06.710Z,64.65
2022-12-15T17:08:55.105Z,62.20
2022-12-15T17:11:42.333Z,53.90
2022-12-15T17:14:29.106Z,60.75
2022-12-15T17:17:17.535Z,61.40
2022-12-15T17:20:28.483Z,51.63
2022-12-15T17:23:17.510Z,48.85
2022-12-15T17:26:28.138Z,50.42
2022-12-15T17:29:16.541Z,50.80
2022-12-15T17:32:03.621Z,54.97
2022-12-15T17:34:50.691Z,52.25
2022-12-15T17:37:38.044Z,56.38
2022-12-15T17:40:25.264Z,48.45
2022-12-15T17:43:36.812Z,52.17
2022-12-15T17:46:27.969Z,45.42
2022-12-15T17:49:19.842Z,45.83
2022-12-15T17:52:28.481Z,41.97
2022-12-15T17:55:35.006Z,46.78
2022-12-15T17:58:27.979Z,42.47
2022-12-15T18:01:40.643Z,41.30
2022-12-15T18:04:36.251Z,41.33
2022-12-15T18:07:23.913Z,39.78
2022-12-15T18:10:42.786Z,39.72
2022-12-15T18:13:35.536Z,41.42
2022-12-15T18:16:24.676Z,43.10
2022-12-15T18:19:12.000Z,38.38
2022-12-15T18:21:59.203Z,38.33
2022-12-15T18:24:48.921Z,38.58
2022-12-15T18:27:35.832Z,45.33
2022-12-15T18:30:26.658Z,38.55
2022-12-15T18:33:14.029Z,38.10
2022-12-15T18:36:11.330Z,35.20
2022-12-15T18:39:23.639Z,41.25
2022-12-15T18:42:17.839Z,41.03
2022-12-15T18:45:13.376Z,36.13
2022-12-15T18:48:04.212Z,35.75
2022-12-15T18:50:55.977Z,44.33
2022-12-15T18:53:42.868Z,38.20
2022-12-15T18:56:37.341Z,33.80
2022-12-15T18:59:27.201Z,32.17
2022-12-15T19:02:20.711Z,32.72
2022-12-15T19:05:28.560Z,36.33
2022-12-15T19:08:36.320Z,32.80
2022-12-15T19:11:41.430Z,34.60
2022-12-15T19:14:40.550Z,32.38
2022-12-15T19:17:49.084Z,31.38
2022-12-15T19:20:54.671Z,31.65
2022-12-15T19:23:41.560Z,33.85
2022-12-15T19:26:36.993Z,34.17
2022-12-15T19:29:23.845Z,28.48
2022-12-15T19:32:35.074Z,30.48
2022-12-15T19:35:22.254Z,30.25
2022-12-15T19:38:24.545Z,30.38
2022-12-15T19:41:26.473Z,29.38
2022-12-15T19:44:20.102Z,25.65
2022-12-15T19:47:20.811Z,33.17
2022-12-15T19:50:15.988Z,29.60
2022-12-15T19:53:06.843Z,30.70
2022-12-15T19:56:03.603Z,26.13
2022-12-15T19:58:53.163Z,27.83
2022-12-15T20:01:43.801Z,27.40
2022-12-15T20:04:32.285Z,27.20
2022-12-15T20:07:32.212Z,24.33
2022-12-15T20:10:29.805Z,25.13
2022-12-15T20:13:25.975Z,23.70
2022-12-15T20:16:19.227Z,26.13
2022-12-15T20:19:06.380Z,26.45
2022-12-15T20:21:55.891Z,27.00
2022-12-15T20:24:44.209Z,23.73
2022-12-15T20:27:31.303Z,24.98
2022-12-15T20:30:35.340Z,23.92
2022-12-15T20:33:22.585Z,22.55
2022-12-15T20:36:13.782Z,23.77
2022-12-15T20:39:06.459Z,22.95
2022-12-15T20:45:41.695Z,25.58
2022-12-15T20:56:40.633Z,27.88
2022-12-15T20:59:45.305Z,24.52
2022-12-15T21:03:04.796Z,23.60
2022-12-15T21:06:26.550Z,23.10
2022-12-15T21:13:12.475Z,22.75
2022-12-15T21:16:18.224Z,20.45
2022-12-15T21:19:34.537Z,21.63
2022-12-15T21:23:29.445Z,22.90
2022-12-15T21:29:52.647Z,22.20
2022-12-15T21:32:52.003Z,22.88
2022-12-15T21:36:14.701Z,22.30
2022-12-15T21:42:38.607Z,21.10
2022-12-15T21:45:47.707Z,25.02
2022-12-15T21:56:11.691Z,23.08
2022-12-15T22:03:02.602Z,22.17
2022-12-15T22:06:13.102Z,22.67
2022-12-15T22:09:22.523Z,22.58
2022-12-15T22:16:32.680Z,20.65
2022-12-15T22:19:46.846Z,21.83
2022-12-15T22:23:20.168Z,22.58
2022-12-15T22:27:22.496Z,22.88
2022-12-15T22:33:47.600Z,23.10
2022-12-15T22:36:48.602Z,24.52
2022-12-15T22:39:47.845Z,21.00
2022-12-15T22:42:47.565Z,24.27
2022-12-15T22:46:10.974Z,24.25
2022-12-15T22:49:26.170Z,24.27
2022-12-15T22:52:47.804Z,24.77
2022-12-15T22:56:04.586Z,24.20
2022-12-15T22:59:32.071Z,24.38
2022-12-15T23:02:44.062Z,25.70
2022-12-15T23:05:52.999Z,27.05
2022-12-15T23:11:55.362Z,26.17
2022-12-15T23:18:20.624Z,27.08
2022-12-15T23:21:30.893Z,29.08
2022-12-15T23:24:31.725Z,27.33
2022-12-15T23:27:26.502Z,24.95
2022-12-15T23:30:44.447Z,29.10
2022-12-15T23:33:46.087Z,24.33
2022-12-15T23:40:39.173Z,27.98
2022-12-15T23:43:42.318Z,27.10
2022-12-15T23:46:36.797Z,27.58
2022-12-15T23:49:46.860Z,26.77
2022-12-15T23:52:43.698Z,27.73
2022-12-15T23:55:43.384Z,28.63
2022-12-15T23:58:57.571Z,25.40
